Kapaa, HI

7:11 AM HST on August 01, 2015 (GMT -1000)
WAILUA HOMESTEADS | | Change Station
CLOSE
Current Station
Personal Weather Station
Location: Kapaa, HI
Elevation: 361 ft
Nearby Weather Stations

Elev 361 ft 22.07 °N, 159.36 °W | Updated 50 seconds ago

Scattered Clouds
Scattered Clouds
75.1 °F
Feels Like 74 °F
N
1.0
Wind Variable Wind from NE
Gusts 1.0 mph

Today
High -- | Low -- °F
--% Chance of Precip.
Yesterday
High -- | Low -- °F
Precip. -- in
6:09 AM 7:17 PM
Full, 98% visible
Pressure 30.00 in
Visibility 10.0 miles
Clouds Few 2100 ft
Scattered Clouds 3000 ft
Heat Index 74 °F
Dew Point 73 °F
Humidity 92%
Rainfall 0.02 in
Snow Depth Not available.
UV 0.0 out of 12
Pollen Not available.
Air Quality Not available.
Flu Activity Not available.
METAR PHLI 011653Z 05013KT 10SM FEW021 SCT030 27/21 A3001 RMK AO2 SLP158 T02670211

More Conditions Fewer Conditions

Pressure 30.00 in
Visibility 10.0 miles
Clouds Few 2100 ft
Scattered Clouds 3000 ft
Heat Index 74 °F
Dew Point 73 °F
Humidity 92%
Rainfall 0.02 in
Snow Depth Not available.
UV 0.0 out of 12
Pollen Not available.
Air Quality Not available.
Flu Activity Not available.
METAR PHLI 011653Z 05013KT 10SM FEW021 SCT030 27/21 A3001 RMK AO2 SLP158 T02670211

More Conditions Fewer Conditions

10-Day Weather Forecast

×

Almanac

Astronomy

Aug. 01, 2015 Rise Set
Actual Time
Civil Twilight
Nautical Twilight
Astronomical Twilight
Moon
Length of Visible Light
Length of Day
Tomorrow will be .
, % of the Moon is Illuminated

Today's Extremes

State Highs State Lows

Community

WunderPhotos

Upload Photos

1,842,994 photos uploaded!

WunderBlogs® & News

Nearby

Air Quality

  Air Quality AQ Index Pollutant
Not available.

Snow Depth

Station Depth Elevation

Earthquake Activity

City Distance Mag. Time & Date
Minimum magnitude displayed is 2.5.

Coastal Water Temperatures

Place Temperature

Stations

Nearby Weather Stations

Station Location Temp. Windchill Dew Point Humidity Wind Precip. Elev Updated Type